createdAt,value
2022-10-08T00:00:53.340Z,76.86
2022-10-08T00:03:22.407Z,77.56
2022-10-08T00:06:11.589Z,77.28
2022-10-08T00:08:40.832Z,77.04
2022-10-08T00:11:13.807Z,77.66
2022-10-08T00:13:41.471Z,77.00
2022-10-08T00:16:19.823Z,76.46
2022-10-08T00:18:49.265Z,75.88
2022-10-08T00:21:24.200Z,75.98
2022-10-08T00:23:52.024Z,77.35
2022-10-08T00:26:21.451Z,77.56
2022-10-08T00:28:48.454Z,77.85
2022-10-08T00:31:26.483Z,78.13
2022-10-08T00:33:54.273Z,78.25
2022-10-08T00:36:21.165Z,79.02
2022-10-08T00:38:48.121Z,78.79
2022-10-08T00:41:23.768Z,78.33
2022-10-08T00:43:53.372Z,78.25
2022-10-08T00:46:25.753Z,78.09
2022-10-08T00:48:55.293Z,78.00
2022-10-08T00:51:21.929Z,77.56
2022-10-08T00:53:48.367Z,77.77
2022-10-08T00:56:14.889Z,77.25
2022-10-08T00:58:42.207Z,77.21
2022-10-08T01:01:09.262Z,76.62
2022-10-08T01:03:35.878Z,76.69
2022-10-08T01:06:26.342Z,76.68
2022-10-08T01:09:09.660Z,76.54
2022-10-08T01:11:46.602Z,76.66
2022-10-08T01:14:13.048Z,76.97
2022-10-08T01:16:54.434Z,78.02
2022-10-08T01:19:37.631Z,78.42
2022-10-08T01:22:10.054Z,77.89
2022-10-08T01:24:45.895Z,78.45
2022-10-08T01:27:26.637Z,78.72
2022-10-08T01:29:53.678Z,78.78
2022-10-08T01:32:22.916Z,78.45
2022-10-08T01:35:01.887Z,78.74
2022-10-08T01:37:30.970Z,79.44
2022-10-08T01:40:00.884Z,80.43
2022-10-08T01:42:28.786Z,79.54
2022-10-08T01:44:59.377Z,79.43
2022-10-08T01:47:27.287Z,79.54
2022-10-08T01:50:02.019Z,79.32
2022-10-08T01:52:32.001Z,78.68
2022-10-08T01:55:02.014Z,78.56
2022-10-08T01:57:28.611Z,78.54
2022-10-08T01:59:58.848Z,78.45
2022-10-08T02:02:25.326Z,78.32
2022-10-08T02:04:54.718Z,78.56
2022-10-08T02:07:33.809Z,79.56
2022-10-08T02:10:23.778Z,79.75
2022-10-08T02:12:50.347Z,79.72
2022-10-08T02:15:23.751Z,79.68
2022-10-08T02:18:06.357Z,79.24
2022-10-08T02:20:36.757Z,78.62
2022-10-08T02:23:28.651Z,79.11
2022-10-08T02:25:58.970Z,78.54
2022-10-08T02:28:41.075Z,78.44
2022-10-08T02:31:14.385Z,78.66
2022-10-08T02:33:44.618Z,78.96
2022-10-08T02:36:12.739Z,79.03
2022-10-08T02:38:52.486Z,79.55
2022-10-08T02:41:21.031Z,79.58
2022-10-08T02:43:49.579Z,79.27
2022-10-08T02:46:19.150Z,78.88
2022-10-08T02:48:51.196Z,78.43
2022-10-08T02:51:18.463Z,78.34
2022-10-08T02:53:45.409Z,78.99
2022-10-08T02:56:15.739Z,79.33
2022-10-08T02:58:42.973Z,79.71
2022-10-08T03:01:23.291Z,80.12
2022-10-08T03:03:56.629Z,80.47
2022-10-08T03:06:23.075Z,81.12
2022-10-08T03:08:50.071Z,81.22
2022-10-08T03:11:16.890Z,81.48
2022-10-08T03:13:46.546Z,80.79
2022-10-08T03:16:15.523Z,79.87
2022-10-08T03:18:42.753Z,79.77
2022-10-08T03:21:10.701Z,80.08
2022-10-08T03:23:37.166Z,80.92
2022-10-08T03:26:03.647Z,82.23
2022-10-08T03:28:30.214Z,81.76
2022-10-08T03:30:56.873Z,82.05
2022-10-08T03:33:23.526Z,81.41
2022-10-08T03:35:49.986Z,80.56
2022-10-08T03:38:16.489Z,79.41
2022-10-08T03:40:43.977Z,79.65
2022-10-08T03:43:10.447Z,79.13
2022-10-08T03:45:36.905Z,79.48
2022-10-08T03:48:03.429Z,78.68
2022-10-08T03:50:29.873Z,78.03
2022-10-08T03:52:56.372Z,78.35
2022-10-08T03:55:22.848Z,78.24
2022-10-08T03:57:49.401Z,78.28
2022-10-08T04:00:16.026Z,78.41
2022-10-08T04:02:42.555Z,78.29
2022-10-08T04:05:09.346Z,78.66
2022-10-08T04:07:35.820Z,78.59
2022-10-08T04:10:02.352Z,77.91
2022-10-08T04:12:29.251Z,78.10
2022-10-08T04:14:55.759Z,78.08
2022-10-08T04:17:22.241Z,78.06
2022-10-08T04:19:48.697Z,78.38
2022-10-08T04:22:15.156Z,78.84
2022-10-08T04:24:41.758Z,79.45
2022-10-08T04:27:08.227Z,79.10
2022-10-08T04:29:34.713Z,79.17
2022-10-08T04:32:01.168Z,79.46
2022-10-08T04:34:27.639Z,79.30
2022-10-08T04:36:54.563Z,80.23
2022-10-08T04:39:21.039Z,79.26
2022-10-08T04:41:47.573Z,78.82
2022-10-08T04:44:14.084Z,78.27
2022-10-08T04:46:40.598Z,78.59
2022-10-08T04:49:07.085Z,78.45
2022-10-08T04:51:33.636Z,78.96
2022-10-08T04:54:00.647Z,79.06
2022-10-08T04:56:32.166Z,80.23
2022-10-08T04:58:59.521Z,80.75
2022-10-08T05:01:27.037Z,81.18
2022-10-08T05:03:55.119Z,80.56
2022-10-08T05:06:24.497Z,80.88
2022-10-08T05:08:53.718Z,81.20
2022-10-08T05:11:25.138Z,80.96
2022-10-08T05:13:53.046Z,80.82
2022-10-08T05:16:19.981Z,80.76
2022-10-08T05:18:47.283Z,80.06
2022-10-08T05:21:16.562Z,79.80
2022-10-08T05:23:43.548Z,79.79
2022-10-08T05:26:18.829Z,79.37
2022-10-08T05:28:46.337Z,79.37
2022-10-08T05:31:16.064Z,78.88
2022-10-08T05:33:43.133Z,78.84
2022-10-08T05:36:16.022Z,78.80
2022-10-08T05:38:42.717Z,78.87
2022-10-08T05:41:29.115Z,78.77
2022-10-08T05:43:56.567Z,78.64
2022-10-08T05:46:24.842Z,78.46
2022-10-08T05:48:56.222Z,78.92
2022-10-08T05:51:23.863Z,78.77
2022-10-08T05:53:51.978Z,78.55
2022-10-08T05:56:20.809Z,79.20
2022-10-08T05:58:47.786Z,79.24
2022-10-08T06:01:32.892Z,78.85
2022-10-08T06:04:08.475Z,78.80
2022-10-08T06:06:37.010Z,79.12
2022-10-08T06:09:04.969Z,79.25
2022-10-08T06:11:33.458Z,79.12
2022-10-08T06:14:00.938Z,78.24
2022-10-08T06:16:30.745Z,78.21
2022-10-08T06:18:57.297Z,77.88
2022-10-08T06:21:25.632Z,78.12
2022-10-08T06:23:54.622Z,77.99
2022-10-08T06:26:22.516Z,77.71
2022-10-08T06:28:49.730Z,78.00
2022-10-08T06:31:17.081Z,77.89
2022-10-08T06:33:44.142Z,78.08
2022-10-08T06:36:18.731Z,78.14
2022-10-08T06:38:52.961Z,78.37
2022-10-08T06:41:20.376Z,79.19
2022-10-08T06:43:46.977Z,78.54
2022-10-08T06:46:13.556Z,78.64
2022-10-08T06:48:40.460Z,78.89
2022-10-08T06:51:09.904Z,78.77
2022-10-08T06:53:36.361Z,78.60
2022-10-08T06:56:05.576Z,78.10
2022-10-08T06:58:32.335Z,77.66
2022-10-08T07:01:19.159Z,78.33
2022-10-08T07:03:54.200Z,78.62
2022-10-08T07:06:20.756Z,79.05
2022-10-08T07:08:47.657Z,79.03
2022-10-08T07:11:18.578Z,78.78
2022-10-08T07:13:45.393Z,78.41
2022-10-08T07:16:20.307Z,77.99
2022-10-08T07:18:48.030Z,77.95
2022-10-08T07:21:15.590Z,78.08
2022-10-08T07:23:42.530Z,78.68
2022-10-08T07:26:17.207Z,77.72
2022-10-08T07:28:55.560Z,78.70
2022-10-08T07:31:24.319Z,79.10
2022-10-08T07:33:50.957Z,78.90
2022-10-08T07:36:19.496Z,79.07
2022-10-08T07:38:46.080Z,79.97
2022-10-08T07:41:12.910Z,81.29
2022-10-08T07:43:39.749Z,80.18
2022-10-08T07:46:07.383Z,80.04
2022-10-08T07:48:34.444Z,79.90
2022-10-08T07:51:11.972Z,80.06
2022-10-08T07:53:39.534Z,79.85
2022-10-08T07:56:07.077Z,79.97
2022-10-08T07:58:33.806Z,81.34
2022-10-08T08:01:01.659Z,82.58
2022-10-08T08:03:28.175Z,83.87
2022-10-08T08:06:00.724Z,84.65
2022-10-08T08:08:27.306Z,84.68
2022-10-08T08:11:00.369Z,84.94
2022-10-08T08:13:31.896Z,87.83
2022-10-08T08:16:04.872Z,89.47
2022-10-08T08:18:33.086Z,90.58
2022-10-08T08:21:01.398Z,90.00
2022-10-08T08:23:35.550Z,90.17
2022-10-08T08:26:04.014Z,89.10
2022-10-08T08:28:31.323Z,88.50
2022-10-08T08:31:07.955Z,90.16
2022-10-08T08:33:34.497Z,90.53
2022-10-08T08:36:01.047Z,90.21
2022-10-08T08:38:27.834Z,89.45
2022-10-08T08:40:55.380Z,93.05
2022-10-08T08:43:21.917Z,95.07
2022-10-08T08:45:48.699Z,96.30
2022-10-08T08:48:26.409Z,95.56
2022-10-08T08:50:55.780Z,95.85
2022-10-08T08:53:22.871Z,95.15
2022-10-08T08:55:52.785Z,94.92
2022-10-08T08:58:19.272Z,94.04
2022-10-08T09:00:52.304Z,93.07
2022-10-08T09:03:28.917Z,92.35
2022-10-08T09:05:58.049Z,91.60
2022-10-08T09:08:30.034Z,90.49
2022-10-08T09:10:57.128Z,90.25
2022-10-08T09:13:41.720Z,89.53
2022-10-08T09:16:12.096Z,89.74
2022-10-08T09:18:38.683Z,90.52
2022-10-08T09:21:05.254Z,89.60
2022-10-08T09:23:31.707Z,88.66
2022-10-08T09:26:17.445Z,88.94
2022-10-08T09:28:57.048Z,87.88
2022-10-08T09:31:45.891Z,86.84
2022-10-08T09:34:12.496Z,86.65
2022-10-08T09:36:45.874Z,86.08
2022-10-08T09:39:27.201Z,86.83
2022-10-08T09:42:14.016Z,85.50
2022-10-08T09:44:41.962Z,84.39
2022-10-08T09:47:16.039Z,84.20
2022-10-08T09:49:43.431Z,83.86
2022-10-08T09:52:23.518Z,84.84
2022-10-08T09:54:59.100Z,83.90
2022-10-08T09:57:25.637Z,82.98
2022-10-08T09:59:58.218Z,83.47
2022-10-08T10:02:31.128Z,83.49
2022-10-08T10:04:58.533Z,82.63
2022-10-08T10:07:39.549Z,83.60
2022-10-08T10:10:14.706Z,86.12
2022-10-08T10:12:42.547Z,85.62
2022-10-08T10:15:08.930Z,84.58
2022-10-08T10:17:57.035Z,82.70
2022-10-08T10:20:45.675Z,81.76
2022-10-08T10:23:14.775Z,80.59
2022-10-08T10:25:48.622Z,79.89
2022-10-08T10:28:33.530Z,79.34
2022-10-08T10:31:14.145Z,79.85
2022-10-08T10:33:58.101Z,78.95
2022-10-08T10:36:29.663Z,78.78
2022-10-08T10:39:06.394Z,77.15
2022-10-08T10:41:37.245Z,76.77
2022-10-08T10:44:10.466Z,76.30
2022-10-08T10:46:41.586Z,76.85
2022-10-08T10:49:35.306Z,74.92
2022-10-08T10:52:20.125Z,76.52
2022-10-08T10:55:12.939Z,77.17
2022-10-08T10:58:27.451Z,76.06
2022-10-08T11:00:56.532Z,76.46
2022-10-08T11:03:38.678Z,76.15
2022-10-08T11:06:28.893Z,78.17
2022-10-08T11:09:07.526Z,76.16
2022-10-08T11:11:39.890Z,77.30
2022-10-08T11:14:15.547Z,76.27
2022-10-08T11:16:57.251Z,75.94
2022-10-08T11:19:52.817Z,76.21
2022-10-08T11:22:22.131Z,74.36
2022-10-08T11:25:07.301Z,75.39
2022-10-08T11:27:46.559Z,76.50
2022-10-08T11:30:17.515Z,77.54
2022-10-08T11:32:49.900Z,76.94
2022-10-08T11:35:39.663Z,76.02
2022-10-08T11:38:17.281Z,75.72
2022-10-08T11:40:49.250Z,76.66
2022-10-08T11:43:33.194Z,75.49
2022-10-08T11:46:24.834Z,75.62
2022-10-08T11:48:51.346Z,74.65
2022-10-08T11:51:20.937Z,73.71
2022-10-08T11:54:07.418Z,73.97
2022-10-08T11:56:36.901Z,73.70
2022-10-08T11:59:09.153Z,73.05
2022-10-08T12:01:50.086Z,72.25
2022-10-08T12:04:20.301Z,70.08
2022-10-08T12:06:47.977Z,72.43
2022-10-08T12:09:24.177Z,71.72
2022-10-08T12:11:52.607Z,71.87
2022-10-08T12:14:19.346Z,72.70
2022-10-08T12:16:48.588Z,72.59
2022-10-08T12:19:33.170Z,73.77
2022-10-08T12:22:00.895Z,73.68
2022-10-08T12:24:39.658Z,74.97
2022-10-08T12:27:18.500Z,77.39
2022-10-08T12:29:59.598Z,76.06
2022-10-08T12:32:50.856Z,75.90
2022-10-08T12:35:24.607Z,75.16
2022-10-08T12:38:17.324Z,74.64
2022-10-08T12:40:52.957Z,75.26
2022-10-08T12:43:52.980Z,72.14
2022-10-08T12:46:34.756Z,72.82
2022-10-08T12:49:10.193Z,70.22
2022-10-08T12:51:46.677Z,70.42
2022-10-08T12:54:24.604Z,70.60
2022-10-08T12:56:52.126Z,69.56
2022-10-08T12:59:20.691Z,69.51
2022-10-08T13:01:47.697Z,66.68
2022-10-08T13:04:28.289Z,67.80
2022-10-08T13:06:55.142Z,67.64
2022-10-08T13:09:31.276Z,68.15
2022-10-08T13:12:03.593Z,66.91
2022-10-08T13:14:38.079Z,66.58
2022-10-08T13:17:05.324Z,66.40
2022-10-08T13:19:38.942Z,63.94
2022-10-08T13:22:26.257Z,67.42
2022-10-08T13:24:57.512Z,64.87
2022-10-08T13:27:29.792Z,65.80
2022-10-08T13:29:57.808Z,67.35
2022-10-08T13:32:31.171Z,67.22
2022-10-08T13:34:59.442Z,67.42
2022-10-08T13:37:34.206Z,66.71
2022-10-08T13:40:05.799Z,66.06
2022-10-08T13:42:40.354Z,66.91
2022-10-08T13:45:14.843Z,66.38
2022-10-08T13:47:41.445Z,67.18
2022-10-08T13:50:08.395Z,68.77
2022-10-08T13:52:35.221Z,68.38
2022-10-08T13:55:05.453Z,69.04
2022-10-08T13:57:32.185Z,69.21
2022-10-08T13:59:58.785Z,68.83
2022-10-08T14:02:25.276Z,69.90
2022-10-08T14:04:52.063Z,68.47
2022-10-08T14:07:27.881Z,70.34
2022-10-08T14:09:55.529Z,68.81
2022-10-08T14:12:24.422Z,69.75
2022-10-08T14:14:51.244Z,71.56
2022-10-08T14:17:17.812Z,71.54
2022-10-08T14:19:44.461Z,69.55
2022-10-08T14:22:12.062Z,71.44
2022-10-08T14:24:38.585Z,71.25
2022-10-08T14:27:08.268Z,69.94
2022-10-08T14:29:35.067Z,69.01
2022-10-08T14:32:02.992Z,69.92
2022-10-08T14:34:29.528Z,68.79
2022-10-08T14:36:56.088Z,69.97
2022-10-08T14:39:22.691Z,71.68
2022-10-08T14:41:49.240Z,71.56
2022-10-08T14:44:15.703Z,71.02
2022-10-08T14:46:43.220Z,71.89
2022-10-08T14:49:09.693Z,72.07
2022-10-08T14:51:36.143Z,72.28
2022-10-08T14:54:02.640Z,73.95
2022-10-08T14:56:29.109Z,74.15
2022-10-08T14:58:55.592Z,73.54
2022-10-08T15:01:22.050Z,73.93
2022-10-08T15:03:48.534Z,73.32
2022-10-08T15:06:15.050Z,72.99
2022-10-08T15:08:41.529Z,74.92
2022-10-08T15:11:08.068Z,73.06
2022-10-08T15:13:34.562Z,73.56
2022-10-08T15:16:01.310Z,72.97
2022-10-08T15:18:29.887Z,73.32
2022-10-08T15:20:58.499Z,73.32
2022-10-08T15:23:26.258Z,73.77
2022-10-08T15:26:17.223Z,74.39
2022-10-08T15:28:44.883Z,74.62
2022-10-08T15:31:19.214Z,75.58
2022-10-08T15:33:47.949Z,75.98
2022-10-08T15:36:23.579Z,77.33
2022-10-08T15:39:01.680Z,78.06
2022-10-08T15:41:30.035Z,79.84
2022-10-08T15:44:07.073Z,80.44
2022-10-08T15:46:33.575Z,80.66
2022-10-08T15:49:00.070Z,81.96
2022-10-08T15:51:28.359Z,82.20
2022-10-08T15:53:54.837Z,82.16
2022-10-08T15:56:21.358Z,81.39
2022-10-08T15:58:51.780Z,80.13
2022-10-08T16:01:21.204Z,79.41
2022-10-08T16:03:49.176Z,78.45
2022-10-08T16:06:18.026Z,78.19
2022-10-08T16:08:45.063Z,79.68
2022-10-08T16:11:22.043Z,79.28
2022-10-08T16:13:51.370Z,79.14
2022-10-08T16:16:18.117Z,78.91
2022-10-08T16:18:45.998Z,78.87
2022-10-08T16:21:13.492Z,78.47
2022-10-08T16:23:40.232Z,78.36
2022-10-08T16:26:12.328Z,79.17
2022-10-08T16:28:40.527Z,79.80
2022-10-08T16:31:13.878Z,80.58
2022-10-08T16:33:40.379Z,81.70
2022-10-08T16:36:08.447Z,81.56
2022-10-08T16:38:36.840Z,81.82
2022-10-08T16:41:15.085Z,81.23
2022-10-08T16:43:41.669Z,81.73
2022-10-08T16:46:15.946Z,81.79
2022-10-08T16:48:42.528Z,81.38
2022-10-08T16:51:09.107Z,82.48
2022-10-08T16:53:35.804Z,82.85
2022-10-08T16:56:03.464Z,81.94
2022-10-08T16:58:29.950Z,83.51
2022-10-08T17:00:56.569Z,84.08
2022-10-08T17:03:23.087Z,84.34
2022-10-08T17:05:49.578Z,85.05
2022-10-08T17:08:16.114Z,85.04
2022-10-08T17:10:42.650Z,84.51
2022-10-08T17:13:09.185Z,84.33
2022-10-08T17:15:35.632Z,83.98
2022-10-08T17:18:02.098Z,84.05
2022-10-08T17:20:28.582Z,84.55
2022-10-08T17:22:55.067Z,85.25
2022-10-08T17:25:21.596Z,85.77
2022-10-08T17:27:48.051Z,85.21
2022-10-08T17:30:14.623Z,83.69
2022-10-08T17:32:41.332Z,81.99
2022-10-08T17:35:08.261Z,79.96
2022-10-08T17:37:34.819Z,78.03
2022-10-08T17:40:01.299Z,76.50
2022-10-08T17:42:27.786Z,76.84
2022-10-08T17:44:54.286Z,76.11
2022-10-08T17:47:20.741Z,76.76
2022-10-08T17:49:47.280Z,76.71
2022-10-08T17:52:13.834Z,75.31
2022-10-08T17:54:40.304Z,74.03
2022-10-08T17:57:06.772Z,73.80
2022-10-08T17:59:33.226Z,72.39
2022-10-08T18:01:59.792Z,72.32
2022-10-08T18:04:26.321Z,72.53
2022-10-08T18:06:52.775Z,71.58
2022-10-08T18:09:20.842Z,71.13
2022-10-08T18:11:50.163Z,70.45
2022-10-08T18:14:16.974Z,70.56
2022-10-08T18:16:47.916Z,70.34
2022-10-08T18:19:16.069Z,69.51
2022-10-08T18:21:42.541Z,69.89
2022-10-08T18:24:09.048Z,69.41
2022-10-08T18:26:35.644Z,70.29
2022-10-08T18:29:21.430Z,69.98
2022-10-08T18:31:48.160Z,69.97
2022-10-08T18:34:16.766Z,70.40
2022-10-08T18:36:43.537Z,70.80
2022-10-08T18:39:12.422Z,71.21
2022-10-08T18:41:41.572Z,71.66
2022-10-08T18:44:11.073Z,72.40
2022-10-08T18:46:38.447Z,73.71
2022-10-08T18:49:05.731Z,73.78
2022-10-08T18:51:33.320Z,74.57
2022-10-08T18:54:00.208Z,74.11
2022-10-08T18:56:29.102Z,74.22
2022-10-08T18:59:00.227Z,74.49
2022-10-08T19:01:29.052Z,73.79
2022-10-08T19:03:57.970Z,73.72
2022-10-08T19:06:27.273Z,73.36
2022-10-08T19:08:55.268Z,74.70
2022-10-08T19:11:24.030Z,75.25
2022-10-08T19:13:54.970Z,75.25
2022-10-08T19:16:21.829Z,76.06
2022-10-08T19:18:55.955Z,77.05
2022-10-08T19:21:23.424Z,77.22
2022-10-08T19:23:53.149Z,75.78
2022-10-08T19:26:19.724Z,75.32
2022-10-08T19:28:48.544Z,75.13
2022-10-08T19:31:19.805Z,75.96
2022-10-08T19:33:53.613Z,76.99
2022-10-08T19:36:20.756Z,77.61
2022-10-08T19:38:54.891Z,78.07
2022-10-08T19:41:21.425Z,78.90
2022-10-08T19:43:47.939Z,78.88
2022-10-08T19:46:14.427Z,78.14
2022-10-08T19:48:41.023Z,78.53
2022-10-08T19:51:09.255Z,78.22
2022-10-08T19:53:36.411Z,78.22
2022-10-08T19:56:05.096Z,78.50
2022-10-08T19:58:31.878Z,78.57
2022-10-08T20:01:03.144Z,79.34
2022-10-08T20:03:29.741Z,79.90
2022-10-08T20:05:56.203Z,80.50
2022-10-08T20:08:22.823Z,80.24
2022-10-08T20:10:49.305Z,80.43
2022-10-08T20:13:15.793Z,79.75
2022-10-08T20:15:42.377Z,79.31
2022-10-08T20:18:09.779Z,79.29
2022-10-08T20:20:36.257Z,78.96
2022-10-08T20:23:02.724Z,78.71
2022-10-08T20:25:29.216Z,78.41
2022-10-08T20:27:55.765Z,79.22
2022-10-08T20:30:22.281Z,77.95
2022-10-08T20:32:48.983Z,77.64
2022-10-08T20:35:15.681Z,76.99
2022-10-08T20:37:42.219Z,76.79
2022-10-08T20:40:09.039Z,76.78
2022-10-08T20:42:35.671Z,76.11
2022-10-08T20:45:02.259Z,76.24
2022-10-08T20:47:28.762Z,76.46
2022-10-08T20:49:55.245Z,76.33
2022-10-08T20:52:21.873Z,75.95
2022-10-08T20:54:48.405Z,75.67
2022-10-08T20:57:14.927Z,75.95
2022-10-08T20:59:41.381Z,75.28
2022-10-08T21:02:09.801Z,75.63
2022-10-08T21:04:36.322Z,75.84
2022-10-08T21:07:02.784Z,75.02
2022-10-08T21:09:29.248Z,75.15
2022-10-08T21:11:55.769Z,74.43
2022-10-08T21:14:22.641Z,74.06
2022-10-08T21:16:49.237Z,73.73
2022-10-08T21:19:18.576Z,73.21
2022-10-08T21:21:45.041Z,73.88
2022-10-08T21:24:11.620Z,74.02
2022-10-08T21:26:40.423Z,73.44
2022-10-08T21:29:09.529Z,74.50
2022-10-08T21:31:37.640Z,73.72
2022-10-08T21:34:04.890Z,73.22
2022-10-08T21:36:33.812Z,73.72
2022-10-08T21:39:01.915Z,73.63
2022-10-08T21:41:31.806Z,73.03
2022-10-08T21:44:00.422Z,73.81
2022-10-08T21:46:29.975Z,74.57
2022-10-08T21:49:01.761Z,74.30
2022-10-08T21:51:29.363Z,75.10
2022-10-08T21:53:58.131Z,74.48
2022-10-08T21:56:27.406Z,74.98
2022-10-08T21:58:55.535Z,75.48
2022-10-08T22:01:26.691Z,75.60
2022-10-08T22:03:57.074Z,76.03
2022-10-08T22:06:24.398Z,76.35
2022-10-08T22:08:51.514Z,76.13
2022-10-08T22:11:18.156Z,75.92
2022-10-08T22:13:45.118Z,76.38
2022-10-08T22:16:12.961Z,76.64
2022-10-08T22:18:40.143Z,76.76
2022-10-08T22:21:08.690Z,77.20
2022-10-08T22:23:35.744Z,77.63
2022-10-08T22:26:07.414Z,77.32
2022-10-08T22:28:34.423Z,77.28
2022-10-08T22:31:02.759Z,77.33
2022-10-08T22:33:29.665Z,77.53
2022-10-08T22:36:18.653Z,77.69
2022-10-08T22:38:45.795Z,77.46
2022-10-08T22:41:18.400Z,77.93
2022-10-08T22:43:45.322Z,77.88
2022-10-08T22:46:18.279Z,78.63
2022-10-08T22:48:45.395Z,78.49
2022-10-08T22:51:15.185Z,78.81
2022-10-08T22:53:42.098Z,78.65
2022-10-08T22:56:19.893Z,79.15
2022-10-08T22:58:47.355Z,79.31
2022-10-08T23:01:17.056Z,79.48
2022-10-08T23:03:46.147Z,80.05
2022-10-08T23:06:24.377Z,79.47
2022-10-08T23:09:01.463Z,80.13
2022-10-08T23:11:29.346Z,79.79
2022-10-08T23:13:57.321Z,79.54
2022-10-08T23:16:25.327Z,79.98
2022-10-08T23:18:54.892Z,80.12
2022-10-08T23:21:21.738Z,79.99
2022-10-08T23:23:48.883Z,81.29
2022-10-08T23:26:16.612Z,81.25
2022-10-08T23:28:43.952Z,81.91
2022-10-08T23:31:13.023Z,82.42
2022-10-08T23:33:41.531Z,82.53
2022-10-08T23:36:09.456Z,82.69
2022-10-08T23:38:36.583Z,83.06
2022-10-08T23:41:04.911Z,83.44
2022-10-08T23:43:42.358Z,83.53
2022-10-08T23:46:13.575Z,83.68
2022-10-08T23:48:40.761Z,83.68
2022-10-08T23:51:11.049Z,83.90
2022-10-08T23:53:41.327Z,83.72
2022-10-08T23:56:10.393Z,84.12
2022-10-08T23:58:37.220Z,83.75
